SHMÚ vydal meteorologické výstrahy na High temperatures Display warnings

METAR

Aeronautical MET Report METAR

METAR description (Slovak)

23.06.2017 - 18:30 UTC

METAR LZIB 231830Z 06005KT CAVOK 26/15 Q1012=
METAR LZKZ 231830Z 03012KT CAVOK 21/15 Q1011=
METAR LZPP 231830Z 32006KT CAVOK 23/14 Q1013=
METAR LZSL 231830Z 36004KT 330V040 9999 FEW063 24/11 Q1012=
METAR LZTT 231830Z 10004KT 060V200 9999 FEW043 SCT063 18/13 Q1013=
METAR LZZI 231830Z VRB05KT 9999 FEW060 22/13 Q1013=

23.06.2017 - 18:00 UTC

METAR LZIB 231800Z 06007KT CAVOK 28/14 Q1012 NOSIG=
METAR LZKZ 231800Z 36013KT CAVOK 22/14 Q1011=
METAR LZPP 231800Z 34006KT CAVOK 25/14 Q1012=
METAR LZSL 231800Z 34008KT 290V030 9999 FEW063 25/11 Q1012=
METAR LZTT 231800Z 11006KT 080V140 9999 FEW043 SCT063 18/13 Q1013=
METAR LZZI 231800Z 27005KT 220V330 9999 FEW058 23/13 Q1013=

23.06.2017 - 18:00 UTC

METAR LZMC 231800Z 05004KT CAVOK 27/12 Q1013=
METAR LZPW 231800Z 34006KT 290V030 CAVOK 21/13 Q1012=

 

 

skok na menu ↑


skok na začiatok stránky ↑